Caryville, TN (37714)

9:37 PM EST on January 17, 2017 (GMT -0500)
Rocky Top | | Change Station

Elev 1201 ft 36.22 °N, 84.14 °W | Updated 13 seconds ago

Rain
Rain
61.0 °F
Feels Like 61.0 °F
N
6.8
Wind Variable Wind from SSW

Today
High -- | Low -- °F
--% Chance of Precip.
Yesterday
High -- | Low -- °F
Precip. -- in
Pressure 30.06 in
Visibility 9.0 miles
Clouds Overcast 2500 ft
Dew Point 59 °F
Humidity 94%
Rainfall 0.78 in
Snow Depth Not available.
7:46 AM 5:47 PM
Waning Gibbous, 67% visible
METAR KOQT 180153Z AUTO VRB03KT 9SM -RA OVC025 17/16 A3007 RMK AO2 RAB0054E08B43 SLP178 P0000 T01670156
Pressure 30.06 in
Visibility 9.0 miles
Clouds Overcast 2500 ft
Dew Point 59 °F
Humidity 94%
Rainfall 0.78 in
Snow Depth Not available.
7:46 AM 5:47 PM
Waning Gibbous, 67% visible
METAR KOQT 180153Z AUTO VRB03KT 9SM -RA OVC025 17/16 A3007 RMK AO2 RAB0054E08B43 SLP178 P0000 T01670156

Get Your Daily Forecast Email!

Thanks for signing up!

Be on the lookout for a verification email in your inbox.

You'll start receiving the daily forecast at 8 AM.

×

10-Day Weather Forecast

Almanac

Astronomy

Jan. 17, 2017 Rise Set
Actual Time
Civil Twilight
Nautical Twilight
Astronomical Twilight
Moon
Length of Visible Light
Length of Day
Tomorrow will be .
, % of the Moon is Illuminated

Today's Extremes

State Highs State Lows

Community

WunderPhotos

Upload Photos

1,962,540 photos uploaded!

WunderBlog® & News

Nearby

Air Quality

  Air Quality AQ Index Pollutant
Not available.

Snow Depth

Station Depth Elevation

Earthquake Activity

City Distance Mag. Time & Date
Minimum magnitude displayed is 2.5.

Coastal Water Temperatures

Place Temperature

Stations

Nearby Weather Stations

Station Location Temp. Windchill Dew Point Humidity Wind Precip. Elev Updated Type
                   

Watches & Warnings

There are currently no watches in effect.